createdAt,value
2022-11-06T00:01:47.697Z,9.50
2022-11-06T00:04:14.478Z,9.20
2022-11-06T00:06:50.177Z,9.10
2022-11-06T00:09:22.131Z,9.50
2022-11-06T00:11:50.826Z,9.60
2022-11-06T00:14:18.341Z,9.30
2022-11-06T00:16:47.346Z,9.40
2022-11-06T00:19:15.432Z,9.60
2022-11-06T00:21:42.491Z,9.40
2022-11-06T00:24:12.044Z,9.50
2022-11-06T00:26:38.837Z,9.50
2022-11-06T00:29:07.098Z,9.60
2022-11-06T00:31:37.040Z,10.00
2022-11-06T00:34:07.469Z,10.20
2022-11-06T00:36:34.964Z,10.10
2022-11-06T00:39:02.208Z,9.90
2022-11-06T00:41:29.331Z,10.20
2022-11-06T00:43:59.151Z,10.30
2022-11-06T00:46:26.722Z,10.20
2022-11-06T00:48:54.730Z,10.00
2022-11-06T00:51:31.944Z,10.10
2022-11-06T00:54:05.904Z,10.00
2022-11-06T00:56:33.939Z,9.90
2022-11-06T00:59:04.147Z,10.00
2022-11-06T01:01:41.464Z,9.70
2022-11-06T01:04:18.478Z,9.30
2022-11-06T01:06:49.053Z,9.40
2022-11-06T01:09:20.266Z,8.90
2022-11-06T01:12:12.197Z,8.80
2022-11-06T01:14:40.351Z,8.50
2022-11-06T01:17:07.252Z,8.60
2022-11-06T01:19:33.959Z,8.80
2022-11-06T01:22:00.737Z,9.00
2022-11-06T01:24:29.185Z,9.20
2022-11-06T01:29:44.185Z,9.20
2022-11-06T01:32:11.005Z,9.00
2022-11-06T01:34:37.814Z,9.00
2022-11-06T01:37:05.071Z,9.30
2022-11-06T01:39:31.972Z,9.10
2022-11-06T01:41:59.069Z,9.00
2022-11-06T01:44:41.120Z,9.20
2022-11-06T01:47:27.299Z,9.30
2022-11-06T01:49:59.516Z,9.30
2022-11-06T01:52:28.423Z,9.30
2022-11-06T01:55:16.335Z,9.40
2022-11-06T01:57:43.652Z,9.60
2022-11-06T02:00:11.386Z,9.50
2022-11-06T02:02:39.279Z,9.70
2022-11-06T02:05:06.492Z,9.50
2022-11-06T02:07:34.034Z,9.30
2022-11-06T02:10:00.780Z,8.70
2022-11-06T02:13:40.866Z,8.20
2022-11-06T02:16:31.863Z,8.20
2022-11-06T02:19:36.165Z,8.10
2022-11-06T02:22:33.399Z,8.00
2022-11-06T02:25:23.494Z,7.90
2022-11-06T02:28:04.880Z,7.70
2022-11-06T02:30:36.890Z,8.10
2022-11-06T02:33:11.918Z,8.50
2022-11-06T02:35:56.333Z,8.70
2022-11-06T02:38:28.705Z,8.80
2022-11-06T02:41:04.433Z,8.70
2022-11-06T02:43:43.222Z,8.40
2022-11-06T02:51:15.484Z,8.10
2022-11-06T02:57:59.782Z,8.00
2022-11-06T03:05:39.422Z,8.90
2022-11-06T03:09:34.234Z,8.80
2022-11-06T03:12:59.212Z,8.80
2022-11-06T03:19:56.639Z,9.20
2022-11-06T03:26:25.523Z,9.20
2022-11-06T03:29:25.867Z,9.00
2022-11-06T03:32:29.422Z,8.70
2022-11-06T03:35:55.395Z,8.80
2022-11-06T03:38:56.810Z,9.00
2022-11-06T03:42:17.884Z,8.90
2022-11-06T03:45:04.125Z,9.00
2022-11-06T03:48:26.027Z,8.80
2022-11-06T03:51:10.627Z,8.80
2022-11-06T03:54:26.350Z,9.20
2022-11-06T03:57:11.879Z,9.40
2022-11-06T03:59:48.274Z,9.50
2022-11-06T04:02:17.968Z,9.70
2022-11-06T04:04:50.491Z,9.80
2022-11-06T04:07:23.224Z,9.50
2022-11-06T04:10:14.308Z,9.60
2022-11-06T04:13:01.586Z,9.50
2022-11-06T04:15:34.773Z,9.40
2022-11-06T04:18:01.511Z,9.20
2022-11-06T04:20:59.639Z,9.20
2022-11-06T04:24:19.081Z,9.30
2022-11-06T04:27:02.629Z,9.40
2022-11-06T04:29:59.763Z,8.80
2022-11-06T04:32:32.282Z,8.90
2022-11-06T04:35:15.550Z,8.40
2022-11-06T04:38:00.262Z,8.00
2022-11-06T04:40:32.146Z,8.00
2022-11-06T04:43:37.454Z,8.00
2022-11-06T04:46:06.612Z,8.00
2022-11-06T04:48:33.992Z,8.20
2022-11-06T04:51:06.334Z,8.50
2022-11-06T04:53:34.298Z,7.90
2022-11-06T04:56:16.432Z,7.30
2022-11-06T04:58:45.550Z,7.50
2022-11-06T05:01:12.312Z,7.50
2022-11-06T05:03:39.091Z,7.80
2022-11-06T05:06:06.190Z,7.90
2022-11-06T05:08:32.929Z,8.00
2022-11-06T05:10:59.652Z,7.80
2022-11-06T05:13:26.388Z,7.50
2022-11-06T05:15:57.708Z,7.60
2022-11-06T05:18:26.536Z,7.50
2022-11-06T05:21:11.903Z,7.60
2022-11-06T05:23:38.660Z,7.70
2022-11-06T05:26:06.609Z,7.70
2022-11-06T05:28:34.180Z,7.60
2022-11-06T05:31:00.909Z,7.60
2022-11-06T05:33:27.680Z,7.40
2022-11-06T05:35:54.498Z,7.50
2022-11-06T05:38:21.339Z,7.50
2022-11-06T05:40:48.074Z,7.40
2022-11-06T05:43:14.821Z,7.50
2022-11-06T05:45:41.750Z,7.60
2022-11-06T05:48:08.481Z,7.60
2022-11-06T05:50:35.223Z,7.70
2022-11-06T05:53:01.961Z,7.90
2022-11-06T05:55:28.672Z,7.90
2022-11-06T05:57:55.429Z,8.00
2022-11-06T06:00:22.325Z,8.00
2022-11-06T06:02:49.198Z,7.70
2022-11-06T06:05:16.045Z,7.70
2022-11-06T06:07:43.086Z,7.90
2022-11-06T06:10:10.330Z,8.00
2022-11-06T06:12:39.184Z,7.70
2022-11-06T06:15:07.771Z,7.50
2022-11-06T06:17:35.061Z,7.30
2022-11-06T06:20:01.840Z,7.40
2022-11-06T06:22:28.650Z,7.40
2022-11-06T06:24:55.455Z,7.80
2022-11-06T06:27:22.290Z,8.00
2022-11-06T06:29:49.007Z,8.00
2022-11-06T06:32:15.875Z,7.90
2022-11-06T06:34:42.601Z,8.20
2022-11-06T06:37:09.444Z,8.00
2022-11-06T06:39:36.273Z,8.40
2022-11-06T06:42:03.220Z,8.40
2022-11-06T06:44:29.936Z,8.50
2022-11-06T06:46:56.677Z,8.70
2022-11-06T06:49:23.489Z,8.90
2022-11-06T06:51:50.755Z,8.90
2022-11-06T06:54:17.588Z,9.10
2022-11-06T06:56:44.365Z,9.20
2022-11-06T06:59:11.175Z,8.90
2022-11-06T07:01:38.069Z,9.10
2022-11-06T07:04:05.277Z,9.20
2022-11-06T07:06:32.154Z,9.50
2022-11-06T07:08:58.945Z,9.30
2022-11-06T07:11:25.789Z,8.90
2022-11-06T07:13:52.537Z,9.30
2022-11-06T07:16:21.181Z,9.30
2022-11-06T07:18:47.938Z,8.90
2022-11-06T07:21:14.761Z,9.00
2022-11-06T07:23:41.587Z,9.00
2022-11-06T07:26:08.765Z,9.00
2022-11-06T07:28:35.837Z,9.00
2022-11-06T07:31:05.628Z,9.00
2022-11-06T07:33:32.557Z,9.20
2022-11-06T07:36:11.413Z,9.50
2022-11-06T07:38:40.310Z,9.60
2022-11-06T07:41:11.674Z,9.80
2022-11-06T07:43:38.609Z,9.80
2022-11-06T07:46:09.185Z,10.10
2022-11-06T07:48:36.036Z,10.20
2022-11-06T07:51:05.774Z,10.40
2022-11-06T07:53:33.104Z,10.30
2022-11-06T07:56:00.080Z,10.30
2022-11-06T07:58:27.219Z,10.60
2022-11-06T08:00:57.051Z,10.20
2022-11-06T08:03:25.668Z,9.20
2022-11-06T08:05:52.403Z,8.80
2022-11-06T08:08:19.218Z,9.00
2022-11-06T08:10:47.577Z,9.20
2022-11-06T08:13:17.249Z,9.40
2022-11-06T08:15:44.830Z,8.60
2022-11-06T08:18:12.548Z,9.20
2022-11-06T08:20:40.883Z,9.10
2022-11-06T08:23:10.888Z,8.90
2022-11-06T08:25:38.067Z,8.20
2022-11-06T08:28:05.028Z,8.30
2022-11-06T08:30:32.323Z,8.40
2022-11-06T08:33:05.681Z,8.50
2022-11-06T08:35:34.351Z,8.80
2022-11-06T08:38:01.096Z,8.60
2022-11-06T08:40:30.885Z,8.80
2022-11-06T08:43:03.693Z,9.10
2022-11-06T08:45:36.635Z,9.40
2022-11-06T08:48:04.633Z,9.90
2022-11-06T08:50:32.812Z,10.10
2022-11-06T08:53:04.402Z,10.20
2022-11-06T08:55:35.677Z,10.20
2022-11-06T08:58:03.210Z,10.20
2022-11-06T09:00:30.412Z,10.50
2022-11-06T09:03:10.902Z,10.80
2022-11-06T09:05:41.797Z,11.10
2022-11-06T09:08:09.482Z,10.90
2022-11-06T09:10:38.894Z,11.00
2022-11-06T09:13:06.297Z,11.30
2022-11-06T09:15:33.473Z,11.50
2022-11-06T09:18:00.251Z,10.50
2022-11-06T09:20:27.374Z,10.20
2022-11-06T09:22:54.664Z,10.80
2022-11-06T09:25:21.905Z,11.00
2022-11-06T09:27:58.823Z,11.00
2022-11-06T09:30:28.810Z,10.80
2022-11-06T09:32:59.667Z,11.20
2022-11-06T09:35:28.907Z,10.90
2022-11-06T09:38:06.862Z,11.30
2022-11-06T09:40:39.710Z,11.40
2022-11-06T09:44:04.205Z,11.70
2022-11-06T09:46:38.708Z,11.60
2022-11-06T09:49:29.084Z,11.40
2022-11-06T09:52:03.727Z,11.20
2022-11-06T09:54:44.737Z,12.20
2022-11-06T09:57:19.590Z,11.90
2022-11-06T09:59:48.088Z,12.30
2022-11-06T10:02:34.188Z,12.40
2022-11-06T10:05:25.832Z,12.70
2022-11-06T10:07:55.408Z,12.60
2022-11-06T10:10:41.595Z,12.90
2022-11-06T10:13:44.561Z,12.90
2022-11-06T10:16:41.903Z,13.10
2022-11-06T10:20:01.294Z,13.20
2022-11-06T10:22:41.673Z,13.30
2022-11-06T10:25:22.981Z,13.50
2022-11-06T10:28:04.335Z,13.70
2022-11-06T10:31:00.186Z,13.60
2022-11-06T10:33:59.228Z,13.70
2022-11-06T10:36:38.322Z,14.10
2022-11-06T10:39:15.749Z,14.00
2022-11-06T10:41:49.458Z,12.50
2022-11-06T10:44:31.894Z,13.40
2022-11-06T10:47:11.727Z,13.70
2022-11-06T10:49:45.940Z,14.00
2022-11-06T10:52:15.635Z,14.10
2022-11-06T10:55:39.578Z,13.70
2022-11-06T10:58:18.806Z,14.80
2022-11-06T11:00:46.046Z,15.60
2022-11-06T11:03:28.045Z,16.00
2022-11-06T11:05:55.656Z,16.00
2022-11-06T11:08:46.922Z,15.40
2022-11-06T11:11:13.563Z,16.20
2022-11-06T11:14:11.678Z,16.50
2022-11-06T11:16:41.377Z,17.00
2022-11-06T11:19:35.453Z,16.90
2022-11-06T11:22:05.272Z,15.00
2022-11-06T11:24:32.258Z,15.20
2022-11-06T11:27:07.019Z,14.80
2022-11-06T11:29:48.001Z,15.10
2022-11-06T11:32:17.983Z,14.60
2022-11-06T11:34:56.469Z,14.70
2022-11-06T11:37:33.922Z,14.90
2022-11-06T11:40:21.899Z,14.20
2022-11-06T11:42:48.993Z,14.10
2022-11-06T11:45:21.506Z,13.00
2022-11-06T11:47:51.699Z,13.70
2022-11-06T11:50:23.843Z,12.20
2022-11-06T11:52:59.534Z,12.30
2022-11-06T11:55:29.349Z,12.50
2022-11-06T11:58:00.301Z,12.30
2022-11-06T12:00:28.917Z,12.10
2022-11-06T12:02:57.250Z,12.30
2022-11-06T12:05:34.016Z,12.20
2022-11-06T12:08:01.468Z,11.90
2022-11-06T12:10:36.501Z,11.90
2022-11-06T12:13:23.646Z,12.10
2022-11-06T12:16:10.827Z,12.20
2022-11-06T12:18:44.215Z,12.20
2022-11-06T12:21:37.104Z,11.90
2022-11-06T12:24:43.848Z,11.90
2022-11-06T12:27:23.527Z,12.20
2022-11-06T12:30:05.752Z,12.00
2022-11-06T12:32:54.084Z,12.70
2022-11-06T12:36:02.539Z,12.10
2022-11-06T12:39:05.007Z,11.80
2022-11-06T12:41:39.438Z,11.90
2022-11-06T12:44:12.003Z,11.60
2022-11-06T12:46:56.137Z,11.40
2022-11-06T12:49:31.861Z,10.90
2022-11-06T12:52:23.328Z,11.20
2022-11-06T12:55:07.857Z,11.30
2022-11-06T12:58:04.744Z,11.50
2022-11-06T13:00:42.576Z,11.20
2022-11-06T13:03:46.681Z,11.10
2022-11-06T13:06:26.752Z,10.70
2022-11-06T13:09:26.598Z,11.00
2022-11-06T13:12:18.275Z,11.40
2022-11-06T13:15:16.695Z,10.90
2022-11-06T13:17:55.648Z,11.50
2022-11-06T13:20:57.192Z,12.00
2022-11-06T13:23:33.133Z,11.80
2022-11-06T13:26:17.768Z,11.50
2022-11-06T13:28:56.080Z,11.70
2022-11-06T13:31:49.793Z,11.20
2022-11-06T13:34:24.826Z,11.50
2022-11-06T13:36:51.760Z,11.90
2022-11-06T13:39:29.836Z,12.20
2022-11-06T13:41:57.549Z,12.20
2022-11-06T13:44:25.201Z,12.10
2022-11-06T13:47:09.838Z,12.90
2022-11-06T13:50:07.166Z,12.90
2022-11-06T13:53:06.235Z,12.60
2022-11-06T13:56:21.545Z,12.60
2022-11-06T13:59:37.837Z,12.00
2022-11-06T14:02:50.206Z,12.30
2022-11-06T14:05:43.772Z,12.70
2022-11-06T14:08:30.132Z,12.80
2022-11-06T14:11:12.474Z,12.70
2022-11-06T14:13:40.402Z,12.50
2022-11-06T14:16:22.448Z,12.40
2022-11-06T14:18:58.131Z,12.10
2022-11-06T14:21:43.988Z,11.70
2022-11-06T14:24:41.440Z,12.00
2022-11-06T14:27:31.233Z,11.70
2022-11-06T14:30:16.267Z,11.30
2022-11-06T14:32:47.004Z,11.20
2022-11-06T14:35:28.858Z,11.60
2022-11-06T14:38:31.710Z,11.50
2022-11-06T14:40:59.618Z,11.40
2022-11-06T14:43:36.389Z,11.60
2022-11-06T14:46:18.029Z,11.30
2022-11-06T14:48:51.341Z,11.00
2022-11-06T14:51:27.050Z,11.20
2022-11-06T14:53:59.293Z,11.20
2022-11-06T14:56:31.958Z,11.50
2022-11-06T14:59:55.191Z,11.20
2022-11-06T15:02:40.965Z,11.40
2022-11-06T15:05:22.513Z,11.30
2022-11-06T15:08:05.224Z,11.80
2022-11-06T15:10:50.258Z,11.80
2022-11-06T15:13:17.441Z,11.40
2022-11-06T15:15:52.497Z,11.00
2022-11-06T15:18:35.967Z,11.60
2022-11-06T15:21:47.800Z,11.40
2022-11-06T15:24:54.347Z,11.10
2022-11-06T15:28:00.354Z,10.30
2022-11-06T15:31:56.020Z,11.00
2022-11-06T15:34:34.780Z,10.60
2022-11-06T15:37:24.232Z,11.20
2022-11-06T15:40:00.657Z,10.60
2022-11-06T15:42:31.715Z,10.60
2022-11-06T15:45:19.687Z,11.00
2022-11-06T15:48:05.632Z,10.60
2022-11-06T15:50:35.429Z,10.60
2022-11-06T15:53:14.856Z,10.70
2022-11-06T15:55:53.076Z,10.80
2022-11-06T15:58:19.786Z,11.20
2022-11-06T16:00:47.310Z,11.60
2022-11-06T16:03:21.208Z,12.10
2022-11-06T16:05:49.040Z,12.60
2022-11-06T16:08:18.794Z,12.40
2022-11-06T16:10:49.805Z,12.60
2022-11-06T16:13:20.310Z,12.90
2022-11-06T16:15:52.946Z,12.90
2022-11-06T16:18:31.673Z,13.30
2022-11-06T16:21:20.052Z,13.40
2022-11-06T16:23:53.764Z,13.20
2022-11-06T16:26:32.649Z,13.00
2022-11-06T16:29:00.577Z,13.50
2022-11-06T16:31:30.067Z,13.50
2022-11-06T16:34:22.122Z,13.50
2022-11-06T16:37:01.226Z,12.70
2022-11-06T16:39:47.685Z,12.60
2022-11-06T16:42:22.324Z,13.00
2022-11-06T16:44:51.915Z,13.00
2022-11-06T16:47:23.084Z,12.90
2022-11-06T16:49:54.309Z,13.20
2022-11-06T16:52:32.503Z,12.80
2022-11-06T16:55:06.022Z,12.80
2022-11-06T16:57:43.442Z,12.80
2022-11-06T17:00:30.979Z,12.70
2022-11-06T17:03:22.475Z,12.80
2022-11-06T17:05:57.858Z,12.70
2022-11-06T17:08:37.364Z,13.10
2022-11-06T17:11:13.053Z,12.60
2022-11-06T17:13:46.552Z,12.70
2022-11-06T17:16:21.406Z,12.80
2022-11-06T17:18:48.663Z,12.70
2022-11-06T17:21:18.892Z,12.40
2022-11-06T17:23:47.229Z,12.70
2022-11-06T17:26:29.885Z,12.70
2022-11-06T17:28:58.530Z,12.80
2022-11-06T17:31:26.607Z,12.40
2022-11-06T17:33:53.784Z,12.30
2022-11-06T17:36:26.470Z,12.40
2022-11-06T17:38:55.357Z,12.30
2022-11-06T17:41:29.795Z,13.10
2022-11-06T17:43:59.531Z,12.40
2022-11-06T17:46:29.261Z,12.20
2022-11-06T17:48:57.000Z,12.00
2022-11-06T17:51:42.517Z,12.20
2022-11-06T17:54:10.666Z,11.80
2022-11-06T17:56:38.417Z,11.90
2022-11-06T17:59:05.307Z,11.90
2022-11-06T18:01:32.317Z,11.90
2022-11-06T18:03:59.201Z,12.20
2022-11-06T18:06:26.057Z,12.10
2022-11-06T18:08:57.365Z,12.00
2022-11-06T18:11:24.155Z,12.10
2022-11-06T18:13:51.230Z,11.60
2022-11-06T18:16:22.344Z,11.50
2022-11-06T18:18:50.029Z,11.50
2022-11-06T18:21:17.418Z,11.70
2022-11-06T18:23:44.254Z,12.00
2022-11-06T18:26:10.997Z,11.90
2022-11-06T18:28:37.742Z,11.30
2022-11-06T18:31:04.463Z,11.30
2022-11-06T18:33:31.523Z,11.40
2022-11-06T18:36:03.580Z,11.20
2022-11-06T18:38:30.770Z,11.40
2022-11-06T18:40:57.743Z,11.40
2022-11-06T18:43:24.923Z,11.00
2022-11-06T18:45:52.011Z,11.50
2022-11-06T18:48:21.693Z,11.00
2022-11-06T18:50:48.844Z,11.40
2022-11-06T18:53:15.715Z,11.10
2022-11-06T18:55:46.106Z,11.30
2022-11-06T18:58:13.423Z,11.30
2022-11-06T19:00:40.440Z,11.70
2022-11-06T19:03:07.272Z,11.30
2022-11-06T19:05:34.255Z,11.40
2022-11-06T19:08:02.678Z,11.40
2022-11-06T19:10:31.142Z,11.80
2022-11-06T19:12:59.566Z,11.70
2022-11-06T19:15:26.618Z,11.80
2022-11-06T19:17:54.735Z,11.90
2022-11-06T19:20:22.180Z,11.60
2022-11-06T19:22:53.408Z,11.60
2022-11-06T19:25:20.948Z,11.40
2022-11-06T19:27:48.109Z,11.70
2022-11-06T19:30:15.756Z,11.70
2022-11-06T19:32:42.693Z,11.50
2022-11-06T19:35:09.826Z,11.50
2022-11-06T19:37:38.286Z,11.50
2022-11-06T19:40:06.567Z,12.00
2022-11-06T19:42:33.984Z,11.80
2022-11-06T19:45:01.396Z,11.90
2022-11-06T19:47:28.250Z,11.70
2022-11-06T19:49:54.981Z,11.70
2022-11-06T19:52:42.973Z,11.70
2022-11-06T19:55:25.866Z,12.00
2022-11-06T19:57:57.716Z,12.00
2022-11-06T20:00:24.600Z,12.10
2022-11-06T20:02:51.408Z,11.90
2022-11-06T20:05:19.555Z,11.90
2022-11-06T20:07:46.435Z,12.00
2022-11-06T20:10:13.347Z,12.00
2022-11-06T20:12:40.155Z,12.10
2022-11-06T20:15:07.562Z,12.00
2022-11-06T20:17:34.503Z,12.00
2022-11-06T20:20:01.271Z,12.20
2022-11-06T20:22:28.123Z,12.00
2022-11-06T20:24:55.206Z,11.90
2022-11-06T20:27:22.134Z,12.00
2022-11-06T20:29:48.872Z,12.00
2022-11-06T20:32:18.997Z,12.00
2022-11-06T20:34:47.588Z,11.90
2022-11-06T20:37:14.428Z,11.90
2022-11-06T20:39:41.725Z,11.90
2022-11-06T20:42:09.029Z,12.10
2022-11-06T20:44:35.873Z,12.20
2022-11-06T20:47:03.377Z,12.20
2022-11-06T20:49:30.243Z,12.10
2022-11-06T20:52:13.984Z,12.20
2022-11-06T20:54:46.950Z,12.10
2022-11-06T20:57:18.123Z,12.20
2022-11-06T20:59:45.257Z,12.30
2022-11-06T21:02:12.197Z,12.40
2022-11-06T21:04:39.239Z,12.60
2022-11-06T21:07:06.232Z,12.20
2022-11-06T21:09:33.290Z,12.20
2022-11-06T21:12:00.287Z,12.30
2022-11-06T21:14:27.750Z,12.20
2022-11-06T21:16:56.430Z,12.20
2022-11-06T21:19:23.858Z,12.40
2022-11-06T21:21:51.098Z,12.20
2022-11-06T21:24:18.040Z,12.10
2022-11-06T21:26:44.796Z,12.00
2022-11-06T21:29:11.742Z,11.80
2022-11-06T21:31:44.013Z,11.80
2022-11-06T21:34:15.995Z,11.70
2022-11-06T21:36:43.138Z,11.50
2022-11-06T21:39:16.867Z,11.20
2022-11-06T21:41:43.647Z,11.10
2022-11-06T21:44:15.672Z,11.10
2022-11-06T21:46:45.674Z,11.10
2022-11-06T21:49:13.767Z,11.10
2022-11-06T21:51:41.048Z,11.10
2022-11-06T21:54:29.131Z,11.10
2022-11-06T21:56:55.867Z,11.20
2022-11-06T21:59:26.459Z,11.30
2022-11-06T22:01:53.579Z,11.30
2022-11-06T22:04:20.636Z,11.00
2022-11-06T22:06:47.374Z,11.30
2022-11-06T22:09:15.017Z,11.10
2022-11-06T22:11:44.066Z,11.00
2022-11-06T22:14:15.104Z,11.00
2022-11-06T22:16:45.335Z,10.80
2022-11-06T22:19:13.511Z,10.80
2022-11-06T22:21:41.051Z,10.90
2022-11-06T22:24:10.908Z,11.10
2022-11-06T22:26:37.829Z,10.90
2022-11-06T22:29:34.478Z,11.00
2022-11-06T22:32:17.258Z,10.70
2022-11-06T22:34:43.995Z,10.60
2022-11-06T22:37:40.846Z,11.00
2022-11-06T22:40:42.853Z,10.80
2022-11-06T22:43:42.263Z,10.70
2022-11-06T22:46:19.018Z,11.00
2022-11-06T22:48:46.158Z,10.90
2022-11-06T22:51:23.065Z,11.00
2022-11-06T22:53:50.507Z,10.80
2022-11-06T22:56:18.238Z,10.70
2022-11-06T22:58:45.551Z,10.90
2022-11-06T23:01:13.226Z,10.80
2022-11-06T23:03:40.749Z,10.90
2022-11-06T23:06:09.767Z,10.70
2022-11-06T23:08:44.171Z,11.10
2022-11-06T23:11:17.040Z,10.90
2022-11-06T23:13:44.805Z,11.40
2022-11-06T23:16:39.763Z,11.10
2022-11-06T23:19:07.251Z,11.20
2022-11-06T23:21:34.004Z,11.00
2022-11-06T23:24:00.903Z,11.20
2022-11-06T23:26:27.648Z,11.30
2022-11-06T23:28:55.849Z,11.20
2022-11-06T23:31:23.566Z,11.30
2022-11-06T23:33:50.448Z,11.20
2022-11-06T23:36:17.983Z,11.40
2022-11-06T23:38:45.134Z,11.30
2022-11-06T23:41:34.568Z,11.20
2022-11-06T23:44:02.935Z,11.30
2022-11-06T23:46:32.614Z,11.20
2022-11-06T23:49:00.082Z,11.50
2022-11-06T23:51:27.696Z,11.50
2022-11-06T23:53:54.821Z,11.40
2022-11-06T23:56:21.605Z,11.30
2022-11-06T23:58:48.352Z,11.80
